createdAt,value
2023-04-11T00:00:54.019Z,951.7923
2023-04-11T00:01:55.684Z,951.7961
2023-04-11T00:02:57.621Z,951.8177
2023-04-11T00:03:59.146Z,951.8661
2023-04-11T00:05:00.739Z,951.8862
2023-04-11T00:06:02.279Z,951.8831
2023-04-11T00:07:03.902Z,951.9423
2023-04-11T00:08:05.642Z,951.9915
2023-04-11T00:09:07.216Z,951.9969
2023-04-11T00:10:08.871Z,952.0254
2023-04-11T00:11:10.649Z,952.0662
2023-04-11T00:12:12.180Z,952.0908
2023-04-11T00:13:13.935Z,952.1615
2023-04-11T00:14:16.097Z,952.1692
2023-04-11T00:15:17.141Z,952.1377
2023-04-11T00:16:18.851Z,952.1331
2023-04-11T00:17:20.471Z,952.1892
2023-04-11T00:18:22.165Z,952.1970
2023-04-11T00:19:23.770Z,952.1777
2023-04-11T00:20:25.449Z,952.1323
2023-04-11T00:21:27.126Z,952.1077
2023-04-11T00:22:28.744Z,952.0700
2023-04-11T00:23:31.292Z,952.0685
2023-04-11T00:24:32.073Z,952.0939
2023-04-11T00:25:33.796Z,952.1053
2023-04-11T00:26:35.370Z,952.1100
2023-04-11T00:27:37.019Z,952.0670
2023-04-11T00:28:38.766Z,952.0169
2023-04-11T00:29:40.417Z,951.9723
2023-04-11T00:30:42.031Z,951.9323
2023-04-11T00:31:43.742Z,951.9446
2023-04-11T00:32:45.366Z,951.9738
2023-04-11T00:33:47.058Z,952.0146
2023-04-11T00:34:48.714Z,952.0769
2023-04-11T00:35:50.364Z,952.0892
2023-04-11T00:36:52.034Z,952.0731
2023-04-11T00:37:53.576Z,952.0546
2023-04-11T00:38:56.001Z,952.0200
2023-04-11T00:39:57.013Z,951.9900
2023-04-11T00:40:58.625Z,951.9308
2023-04-11T00:42:00.321Z,951.8669
2023-04-11T00:43:02.045Z,951.8123
2023-04-11T00:44:03.638Z,951.7669
2023-04-11T00:45:05.264Z,951.7392
2023-04-11T00:46:07.030Z,951.6992
2023-04-11T00:47:08.675Z,951.7208
2023-04-11T00:48:10.227Z,951.7623
2023-04-11T00:49:11.904Z,951.7162
2023-04-11T00:50:13.558Z,951.6646
2023-04-11T00:51:15.291Z,951.5961
2023-04-11T00:52:16.857Z,951.5346
2023-04-11T00:53:18.548Z,951.4815
2023-04-11T00:54:20.213Z,951.4500
2023-04-11T00:55:21.800Z,951.4646
2023-04-11T00:56:23.432Z,951.4954
2023-04-11T00:57:25.155Z,951.4769
2023-04-11T00:58:26.790Z,951.4254
2023-04-11T00:59:28.395Z,951.4046
2023-04-11T01:00:30.176Z,951.4016
2023-04-11T01:01:32.801Z,951.3770
2023-04-11T01:02:33.446Z,951.3369
2023-04-11T01:03:35.160Z,951.2931
2023-04-11T01:04:36.770Z,951.2662
2023-04-11T01:05:38.401Z,951.3038
2023-04-11T01:06:40.032Z,951.3854
2023-04-11T01:07:41.678Z,951.4539
2023-04-11T01:08:43.304Z,951.5562
2023-04-11T01:09:45.006Z,951.5992
2023-04-11T01:10:46.634Z,951.5523
2023-04-11T01:11:48.266Z,951.5754
2023-04-11T01:12:49.906Z,951.5284
2023-04-11T01:13:51.592Z,951.5208
2023-04-11T01:14:53.267Z,951.5884
2023-04-11T01:15:54.927Z,951.6077
2023-04-11T01:16:56.699Z,951.5815
2023-04-11T01:17:58.258Z,951.4523
2023-04-11T01:18:59.901Z,951.3692
2023-04-11T01:20:01.766Z,951.3038
2023-04-11T01:21:03.177Z,951.2385
2023-04-11T01:22:04.755Z,951.1854
2023-04-11T01:23:05.306Z,951.1850
2023-04-11T01:24:08.139Z,951.1586
2023-04-11T01:25:10.247Z,951.1492
2023-04-11T01:26:11.518Z,951.1915
2023-04-11T01:27:13.170Z,951.2485
2023-04-11T01:28:14.891Z,951.3384
2023-04-11T01:29:16.409Z,951.4153
2023-04-11T01:30:18.237Z,951.4508
2023-04-11T01:31:19.728Z,951.4200
2023-04-11T01:32:21.436Z,951.3685
2023-04-11T01:33:23.063Z,951.2931
2023-04-11T01:34:24.755Z,951.2762
2023-04-11T01:35:27.212Z,951.2554
2023-04-11T01:36:28.023Z,951.2415
2023-04-11T01:37:29.590Z,951.2330
2023-04-11T01:38:31.290Z,951.2177
2023-04-11T01:39:33.011Z,951.1746
2023-04-11T01:40:34.649Z,951.1708
2023-04-11T01:41:36.251Z,951.1870
2023-04-11T01:42:38.001Z,951.2438
2023-04-11T01:43:39.529Z,951.3231
2023-04-11T01:44:41.200Z,951.3677
2023-04-11T01:45:42.881Z,951.3992
2023-04-11T01:46:44.561Z,951.4154
2023-04-11T01:47:47.046Z,951.4354
2023-04-11T01:48:47.945Z,951.4315
2023-04-11T01:49:49.485Z,951.4300
2023-04-11T01:50:51.152Z,951.4092
2023-04-11T01:51:52.795Z,951.4031
2023-04-11T01:52:54.524Z,951.4231
2023-04-11T01:53:56.123Z,951.3669
2023-04-11T01:54:58.291Z,951.3185
2023-04-11T01:55:59.416Z,951.2508
2023-04-11T01:57:01.016Z,951.2177
2023-04-11T01:58:02.737Z,951.2039
2023-04-11T01:59:04.393Z,951.2039
2023-04-11T02:00:06.706Z,951.2069
2023-04-11T02:01:07.859Z,951.1854
2023-04-11T02:02:09.471Z,951.1477
2023-04-11T02:03:11.121Z,951.0638
2023-04-11T02:04:12.825Z,951.0192
2023-04-11T02:05:14.344Z,951.0100
2023-04-11T02:06:16.598Z,950.9823
2023-04-11T02:07:17.658Z,950.9769
2023-04-11T02:08:19.218Z,950.9484
2023-04-11T02:09:20.892Z,950.9161
2023-04-11T02:10:22.533Z,950.9008
2023-04-11T02:11:24.322Z,950.8738
2023-04-11T02:12:25.870Z,950.8954
2023-04-11T02:13:27.416Z,950.8962
2023-04-11T02:14:29.133Z,950.8715
2023-04-11T02:15:30.934Z,950.8762
2023-04-11T02:16:32.536Z,950.9131
2023-04-11T02:17:34.226Z,950.9362
2023-04-11T02:18:35.728Z,950.9815
2023-04-11T02:19:37.457Z,950.9761
2023-04-11T02:20:39.140Z,950.9846
2023-04-11T02:21:40.790Z,950.9785
2023-04-11T02:22:42.458Z,950.9861
2023-04-11T02:23:44.147Z,951.0115
2023-04-11T02:24:45.741Z,951.0361
2023-04-11T02:25:48.224Z,951.0523
2023-04-11T02:26:49.148Z,951.0931
2023-04-11T02:27:50.803Z,951.1100
2023-04-11T02:28:52.462Z,951.1223
2023-04-11T02:29:54.031Z,951.1407
2023-04-11T02:30:55.732Z,951.1546
2023-04-11T02:31:57.374Z,951.2092
2023-04-11T02:32:59.028Z,951.2000
2023-04-11T02:34:00.635Z,951.2131
2023-04-11T02:35:02.320Z,951.1815
2023-04-11T02:36:04.110Z,951.1731
2023-04-11T02:37:05.747Z,951.1623
2023-04-11T02:38:07.189Z,951.1577
2023-04-11T02:39:08.912Z,951.1569
2023-04-11T02:40:10.495Z,951.1161
2023-04-11T02:41:12.190Z,951.0931
2023-04-11T02:42:14.583Z,951.1031
2023-04-11T02:43:15.601Z,951.1039
2023-04-11T02:44:17.207Z,951.0900
2023-04-11T02:45:18.881Z,951.1200
2023-04-11T02:46:20.443Z,951.1307
2023-04-11T02:47:22.362Z,951.1531
2023-04-11T02:48:23.861Z,951.1761
2023-04-11T02:49:25.428Z,951.2331
2023-04-11T02:50:27.124Z,951.2331
2023-04-11T02:51:28.816Z,951.2808
2023-04-11T02:52:30.444Z,951.3446
2023-04-11T02:53:32.075Z,951.3870
2023-04-11T02:54:33.806Z,951.4462
2023-04-11T02:55:35.422Z,951.5692
2023-04-11T02:56:37.019Z,951.6192
2023-04-11T02:57:38.648Z,951.5362
2023-04-11T02:58:40.324Z,951.5000
2023-04-11T02:59:41.942Z,951.5469
2023-04-11T03:00:43.644Z,951.5916
2023-04-11T03:01:45.351Z,951.5654
2023-04-11T03:02:46.933Z,951.5023
2023-04-11T03:03:48.595Z,951.4877
2023-04-11T03:04:50.207Z,951.4977
2023-04-11T03:05:51.785Z,951.5085
2023-04-11T03:06:53.438Z,951.5331
2023-04-11T03:07:55.237Z,951.5577
2023-04-11T03:08:57.489Z,951.5785
2023-04-11T03:09:58.526Z,951.5892
2023-04-11T03:11:00.082Z,951.5692
2023-04-11T03:12:01.726Z,951.5515
2023-04-11T03:13:04.312Z,951.5423
2023-04-11T03:14:05.070Z,951.5223
2023-04-11T03:15:06.738Z,951.5269
2023-04-11T03:16:08.435Z,951.5131
2023-04-11T03:17:09.986Z,951.4885
2023-04-11T03:18:11.698Z,951.4761
2023-04-11T03:19:13.423Z,951.4600
2023-04-11T03:20:14.993Z,951.4277
2023-04-11T03:21:16.620Z,951.4346
2023-04-11T03:22:18.256Z,951.4877
2023-04-11T03:23:19.963Z,951.4977
2023-04-11T03:24:21.591Z,951.5369
2023-04-11T03:25:23.335Z,951.5631
2023-04-11T03:26:24.942Z,951.5592
2023-04-11T03:27:26.547Z,951.6169
2023-04-11T03:28:29.236Z,951.6492
2023-04-11T03:29:29.905Z,951.6654
2023-04-11T03:30:31.512Z,951.6292
2023-04-11T03:31:33.195Z,951.6731
2023-04-11T03:32:34.848Z,951.6623
2023-04-11T03:33:37.387Z,951.6439
2023-04-11T03:34:38.198Z,951.6439
2023-04-11T03:35:39.887Z,951.6254
2023-04-11T03:36:41.491Z,951.6800
2023-04-11T03:37:43.076Z,951.7015
2023-04-11T03:38:44.699Z,951.6500
2023-04-11T03:39:46.477Z,951.6823
2023-04-11T03:40:48.070Z,951.7154
2023-04-11T03:41:49.738Z,951.6769
2023-04-11T03:42:51.368Z,951.7154
2023-04-11T03:43:53.013Z,951.6693
2023-04-11T03:44:54.740Z,951.6646
2023-04-11T03:45:56.380Z,951.6208
2023-04-11T03:46:58.067Z,951.5854
2023-04-11T03:47:59.660Z,951.6469
2023-04-11T03:49:01.270Z,951.5585
2023-04-11T03:50:03.291Z,951.6500
2023-04-11T03:51:04.602Z,951.6700
2023-04-11T03:52:06.216Z,951.6869
2023-04-11T03:53:07.854Z,951.6738
2023-04-11T03:54:09.514Z,951.6423
2023-04-11T03:55:11.186Z,951.6215
2023-04-11T03:56:12.822Z,951.5615
2023-04-11T03:57:14.587Z,951.5700
2023-04-11T03:58:16.168Z,951.5562
2023-04-11T03:59:17.816Z,951.6477
2023-04-11T04:00:20.139Z,951.6854
2023-04-11T04:01:21.141Z,951.7139
2023-04-11T04:02:22.957Z,951.7131
2023-04-11T04:03:24.680Z,951.7261
2023-04-11T04:04:26.262Z,951.6815
2023-04-11T04:05:27.752Z,951.7361
2023-04-11T04:06:29.370Z,951.7361
2023-04-11T04:07:31.077Z,951.7662
2023-04-11T04:08:32.690Z,951.7631
2023-04-11T04:09:34.431Z,951.7846
2023-04-11T04:10:35.973Z,951.8000
2023-04-11T04:11:37.665Z,951.8177
2023-04-11T04:12:39.362Z,951.8285
2023-04-11T04:13:40.979Z,951.8339
2023-04-11T04:14:42.662Z,951.8669
2023-04-11T04:15:44.300Z,951.9185
2023-04-11T04:16:46.060Z,951.9646
2023-04-11T04:17:47.618Z,952.0000
2023-04-11T04:18:49.249Z,952.0223
2023-04-11T04:19:50.903Z,952.0469
2023-04-11T04:20:52.533Z,952.0662
2023-04-11T04:21:54.210Z,952.0569
2023-04-11T04:22:55.830Z,952.1093
2023-04-11T04:23:57.622Z,952.1484
2023-04-11T04:24:59.445Z,952.1661
2023-04-11T04:26:00.831Z,952.1938
2023-04-11T04:27:02.528Z,952.1616
2023-04-11T04:28:04.081Z,952.0846
2023-04-11T04:29:05.756Z,952.0346
2023-04-11T04:30:07.462Z,952.0385
2023-04-11T04:31:09.078Z,951.9669
2023-04-11T04:32:10.883Z,951.9208
2023-04-11T04:33:12.535Z,951.9700
2023-04-11T04:34:14.007Z,952.0400
2023-04-11T04:35:15.672Z,952.0884
2023-04-11T04:36:17.225Z,952.1415
2023-04-11T04:37:18.940Z,952.1693
2023-04-11T04:38:20.556Z,952.1738
2023-04-11T04:39:22.208Z,952.1708
2023-04-11T04:40:23.913Z,952.1870
2023-04-11T04:41:25.517Z,952.2377
2023-04-11T04:42:27.172Z,952.2446
2023-04-11T04:43:28.925Z,952.2131
2023-04-11T04:44:30.529Z,952.2269
2023-04-11T04:45:32.374Z,952.2361
2023-04-11T04:46:33.828Z,952.2784
2023-04-11T04:47:35.529Z,952.3054
2023-04-11T04:48:37.124Z,952.3315
2023-04-11T04:49:38.762Z,952.3246
2023-04-11T04:50:40.474Z,952.3046
2023-04-11T04:51:42.072Z,952.3038
2023-04-11T04:52:43.666Z,952.3585
2023-04-11T04:53:45.430Z,952.3923
2023-04-11T04:54:47.078Z,952.3939
2023-04-11T04:55:48.736Z,952.3416
2023-04-11T04:56:50.329Z,952.3223
2023-04-11T04:57:52.051Z,952.3400
2023-04-11T04:58:53.575Z,952.3531
2023-04-11T04:59:55.289Z,952.3708
2023-04-11T05:00:56.952Z,952.3469
2023-04-11T05:01:58.639Z,952.3023
2023-04-11T05:03:00.398Z,952.3208
2023-04-11T05:04:02.489Z,952.3362
2023-04-11T05:05:03.623Z,952.3515
2023-04-11T05:06:05.257Z,952.3585
2023-04-11T05:07:06.873Z,952.3654
2023-04-11T05:08:08.506Z,952.4069
2023-04-11T05:09:10.153Z,952.4454
2023-04-11T05:10:11.832Z,952.4946
2023-04-11T05:11:13.798Z,952.5331
2023-04-11T05:12:15.064Z,952.5585
2023-04-11T05:13:16.704Z,952.5461
2023-04-11T05:14:18.388Z,952.5869
2023-04-11T05:15:20.416Z,952.6223
2023-04-11T05:16:21.817Z,952.6407
2023-04-11T05:17:25.182Z,952.6208
2023-04-11T05:18:25.046Z,952.6370
2023-04-11T05:19:26.681Z,952.6608
2023-04-11T05:20:29.250Z,952.6854
2023-04-11T05:21:30.835Z,952.6892
2023-04-11T05:22:31.625Z,952.6761
2023-04-11T05:23:33.372Z,952.7354
2023-04-11T05:24:34.987Z,952.7554
2023-04-11T05:25:36.754Z,952.6862
2023-04-11T05:26:38.966Z,952.6769
2023-04-11T05:27:39.994Z,952.6315
2023-04-11T05:28:41.782Z,952.6238
2023-04-11T05:29:43.345Z,952.5884
2023-04-11T05:30:44.968Z,952.5854
2023-04-11T05:31:46.924Z,952.6138
2023-04-11T05:32:48.345Z,952.6477
2023-04-11T05:33:51.017Z,952.6738
2023-04-11T05:34:51.635Z,952.6792
2023-04-11T05:35:53.324Z,952.6053
2023-04-11T05:36:54.875Z,952.5800
2023-04-11T05:37:56.742Z,952.5677
2023-04-11T05:38:58.260Z,952.5538
2023-04-11T05:39:59.820Z,952.5508
2023-04-11T05:41:01.453Z,952.5839
2023-04-11T05:42:03.151Z,952.5800
2023-04-11T05:43:04.999Z,952.6154
2023-04-11T05:44:06.390Z,952.6431
2023-04-11T05:45:08.089Z,952.6692
2023-04-11T05:46:09.740Z,952.6723
2023-04-11T05:47:11.595Z,952.6846
2023-04-11T05:48:14.227Z,952.6854
2023-04-11T05:49:14.788Z,952.6667
2023-04-11T05:50:16.483Z,952.6400
2023-04-11T05:51:18.194Z,952.6415
2023-04-11T05:52:19.930Z,952.6123
2023-04-11T05:53:21.376Z,952.6238
2023-04-11T05:54:23.044Z,952.6169
2023-04-11T05:55:24.719Z,952.6392
2023-04-11T05:56:26.352Z,952.6385
2023-04-11T05:57:28.337Z,952.6415
2023-04-11T05:58:29.673Z,952.6300
2023-04-11T05:59:31.364Z,952.6193
2023-04-11T06:00:32.958Z,952.5708
2023-04-11T06:01:34.520Z,952.5862
2023-04-11T06:02:36.295Z,952.6300
2023-04-11T06:03:37.912Z,952.6769
2023-04-11T06:04:40.117Z,952.7023
2023-04-11T06:05:41.133Z,952.7215
2023-04-11T06:06:42.752Z,952.6915
2023-04-11T06:07:44.443Z,952.6754
2023-04-11T06:08:46.159Z,952.6846
2023-04-11T06:09:47.834Z,952.6623
2023-04-11T06:10:49.502Z,952.6454
2023-04-11T06:11:51.124Z,952.6369
2023-04-11T06:12:52.780Z,952.5969
2023-04-11T06:13:54.545Z,952.5885
2023-04-11T06:14:56.019Z,952.6423
2023-04-11T06:15:57.873Z,952.6277
2023-04-11T06:16:59.391Z,952.6000
2023-04-11T06:18:01.196Z,952.5739
2023-04-11T06:19:02.649Z,952.5546
2023-04-11T06:20:05.919Z,952.5469
2023-04-11T06:21:06.125Z,952.5815
2023-04-11T06:22:07.758Z,952.5847
2023-04-11T06:23:09.968Z,952.6285
2023-04-11T06:24:10.915Z,952.6477
2023-04-11T06:25:12.602Z,952.6115
2023-04-11T06:26:14.234Z,952.6069
2023-04-11T06:27:16.844Z,952.6061
2023-04-11T06:28:17.642Z,952.6046
2023-04-11T06:29:19.945Z,952.6315
2023-04-11T06:30:21.051Z,952.6431
2023-04-11T06:31:23.569Z,952.6477
2023-04-11T06:32:24.633Z,952.6746
2023-04-11T06:33:25.755Z,952.6877
2023-04-11T06:34:27.677Z,952.7008
2023-04-11T06:35:29.166Z,952.6954
2023-04-11T06:36:30.787Z,952.6608
2023-04-11T06:37:32.512Z,952.6746
2023-04-11T06:38:34.586Z,952.6900
2023-04-11T06:39:35.825Z,952.6915
2023-04-11T06:40:37.452Z,952.7115
2023-04-11T06:41:39.026Z,952.7361
2023-04-11T06:42:41.050Z,952.7477
2023-04-11T06:43:42.539Z,952.7415
2023-04-11T06:44:44.373Z,952.7430
2023-04-11T06:45:45.652Z,952.7354
2023-04-11T06:46:47.488Z,952.7300
2023-04-11T06:47:49.075Z,952.7492
2023-04-11T06:48:50.634Z,952.8115
2023-04-11T06:49:52.240Z,952.8162
2023-04-11T06:50:55.046Z,952.8569
2023-04-11T06:51:55.548Z,952.9169
2023-04-11T06:52:57.299Z,952.9123
2023-04-11T06:53:58.888Z,952.9131
2023-04-11T06:55:00.564Z,952.9169
2023-04-11T06:56:02.164Z,952.9208
2023-04-11T06:57:03.881Z,952.9292
2023-04-11T06:58:05.355Z,952.9362
2023-04-11T06:59:07.301Z,952.9562
2023-04-11T07:00:08.727Z,952.9500
2023-04-11T07:01:10.373Z,952.9661
2023-04-11T07:02:12.112Z,952.9885
2023-04-11T07:03:13.797Z,952.9930
2023-04-11T07:04:15.516Z,952.9946
2023-04-11T07:05:16.981Z,952.9985
2023-04-11T07:06:18.696Z,952.9885
2023-04-11T07:07:20.318Z,952.9523
2023-04-11T07:08:21.894Z,952.9423
2023-04-11T07:09:23.592Z,952.9654
2023-04-11T07:10:25.258Z,952.9830
2023-04-11T07:11:26.950Z,952.9700
2023-04-11T07:12:28.458Z,952.9438
2023-04-11T07:13:30.904Z,952.9631
2023-04-11T07:14:31.904Z,952.9985
2023-04-11T07:15:33.463Z,953.0346
2023-04-11T07:16:35.170Z,953.0762
2023-04-11T07:17:36.967Z,953.1085
2023-04-11T07:18:38.400Z,953.0839
2023-04-11T07:19:40.103Z,953.1031
2023-04-11T07:20:41.725Z,953.1315
2023-04-11T07:21:43.405Z,953.1462
2023-04-11T07:22:45.032Z,953.1931
2023-04-11T07:23:46.661Z,953.1761
2023-04-11T07:24:48.340Z,953.1708
2023-04-11T07:25:49.953Z,953.1830
2023-04-11T07:26:51.798Z,953.1407
2023-04-11T07:27:53.334Z,953.1146
2023-04-11T07:28:54.972Z,953.0969
2023-04-11T07:29:56.830Z,953.0923
2023-04-11T07:30:58.244Z,953.1200
2023-04-11T07:31:59.863Z,953.1308
2023-04-11T07:33:01.505Z,953.1539
2023-04-11T07:34:03.135Z,953.2092
2023-04-11T07:35:05.050Z,953.2031
2023-04-11T07:36:06.499Z,953.2092
2023-04-11T07:37:08.081Z,953.2246
2023-04-11T07:38:09.790Z,953.2615
2023-04-11T07:39:11.460Z,953.2877
2023-04-11T07:40:13.522Z,953.2846
2023-04-11T07:41:14.694Z,953.2846
2023-04-11T07:42:16.311Z,953.2877
2023-04-11T07:43:18.116Z,953.3123
2023-04-11T07:44:19.825Z,953.3392
2023-04-11T07:45:21.365Z,953.3762
2023-04-11T07:46:22.949Z,953.3762
2023-04-11T07:47:24.603Z,953.3631
2023-04-11T07:48:26.344Z,953.3877
2023-04-11T07:49:27.948Z,953.4031
2023-04-11T07:50:29.768Z,953.3692
2023-04-11T07:51:31.154Z,953.4254
2023-04-11T07:52:32.911Z,953.4192
2023-04-11T07:53:34.504Z,953.4200
2023-04-11T07:54:36.101Z,953.4731
2023-04-11T07:55:37.837Z,953.5446
2023-04-11T07:56:40.405Z,953.5416
2023-04-11T07:57:41.087Z,953.5731
2023-04-11T07:58:42.772Z,953.5700
2023-04-11T07:59:44.572Z,953.5715
2023-04-11T08:00:45.991Z,953.5931
2023-04-11T08:01:47.775Z,953.6400
2023-04-11T08:02:50.356Z,953.6523
2023-04-11T08:03:51.076Z,953.6631
2023-04-11T08:04:52.754Z,953.6908
2023-04-11T08:05:54.239Z,953.6431
2023-04-11T08:06:55.896Z,953.6808
2023-04-11T08:07:57.568Z,953.6846
2023-04-11T08:08:59.285Z,953.6870
2023-04-11T08:10:00.848Z,953.6546
2023-04-11T08:11:02.506Z,953.6339
2023-04-11T08:12:04.200Z,953.6369
2023-04-11T08:13:05.856Z,953.6469
2023-04-11T08:14:07.416Z,953.6746
2023-04-11T08:15:09.167Z,953.6838
2023-04-11T08:16:10.837Z,953.6870
2023-04-11T08:17:25.143Z,953.7069
2023-04-11T08:18:14.068Z,953.7441
2023-04-11T08:19:15.698Z,953.7546
2023-04-11T08:20:17.416Z,953.7562
2023-04-11T08:21:19.045Z,953.7277
2023-04-11T08:22:21.022Z,953.6785
2023-04-11T08:23:22.384Z,953.6830
2023-04-11T08:24:23.962Z,953.6815
2023-04-11T08:25:25.630Z,953.7369
2023-04-11T08:26:27.957Z,953.7669
2023-04-11T08:27:28.912Z,953.7615
2023-04-11T08:28:30.714Z,953.7531
2023-04-11T08:29:32.436Z,953.7646
2023-04-11T08:30:33.868Z,953.7839
2023-04-11T08:31:35.456Z,953.8123
2023-04-11T08:32:37.420Z,953.8715
2023-04-11T08:33:38.713Z,953.9507
2023-04-11T08:34:40.389Z,954.0115
2023-04-11T08:35:42.112Z,954.0377
2023-04-11T08:36:43.712Z,954.0762
2023-04-11T08:37:45.938Z,954.1146
2023-04-11T08:38:47.023Z,954.1862
2023-04-11T08:39:48.709Z,954.1792
2023-04-11T08:40:50.532Z,954.1931
2023-04-11T08:41:52.201Z,954.2139
2023-04-11T08:42:53.633Z,954.1938
2023-04-11T08:43:55.572Z,954.2139
2023-04-11T08:44:56.925Z,954.2031
2023-04-11T08:45:58.569Z,954.2047
2023-04-11T08:47:00.283Z,954.2008
2023-04-11T08:48:01.907Z,954.2354
2023-04-11T08:49:03.703Z,954.3054
2023-04-11T08:50:05.091Z,954.3461
2023-04-11T08:51:06.807Z,954.3892
2023-04-11T08:52:08.807Z,954.3915
2023-04-11T08:53:10.055Z,954.3608
2023-04-11T08:54:11.726Z,954.3969
2023-04-11T08:55:13.413Z,954.4092
2023-04-11T08:56:15.023Z,954.4362
2023-04-11T08:57:16.722Z,954.4153
2023-04-11T08:58:18.414Z,954.4123
2023-04-11T08:59:20.052Z,954.3762
2023-04-11T09:00:21.613Z,954.3323
2023-04-11T09:01:23.355Z,954.3231
2023-04-11T09:02:25.109Z,954.3108
2023-04-11T09:03:26.605Z,954.2969
2023-04-11T09:04:29.073Z,954.2346
2023-04-11T09:05:30.202Z,954.2438
2023-04-11T09:06:31.598Z,954.2808
2023-04-11T09:07:33.216Z,954.3239
2023-04-11T09:08:34.830Z,954.3723
2023-04-11T09:09:36.471Z,954.4354
2023-04-11T09:10:38.089Z,954.4177
2023-04-11T09:11:39.764Z,954.4031
2023-04-11T09:12:41.408Z,954.3908
2023-04-11T09:13:43.817Z,954.3538
2023-04-11T09:14:44.694Z,954.3323
2023-04-11T09:15:46.451Z,954.3277
2023-04-11T09:16:47.898Z,954.3631
2023-04-11T09:17:49.546Z,954.4169
2023-04-11T09:18:51.209Z,954.4400
2023-04-11T09:19:52.872Z,954.4454
2023-04-11T09:20:54.584Z,954.4539
2023-04-11T09:21:56.205Z,954.3954
2023-04-11T09:22:57.821Z,954.3231
2023-04-11T09:23:59.427Z,954.2985
2023-04-11T09:25:01.146Z,954.2708
2023-04-11T09:26:02.840Z,954.2438
2023-04-11T09:27:04.454Z,954.2292
2023-04-11T09:28:06.137Z,954.2215
2023-04-11T09:29:07.746Z,954.1954
2023-04-11T09:30:09.397Z,954.2054
2023-04-11T09:31:11.423Z,954.2131
2023-04-11T09:32:13.403Z,954.2346
2023-04-11T09:33:14.359Z,954.2731
2023-04-11T09:34:16.414Z,954.3254
2023-04-11T09:35:18.236Z,954.3208
2023-04-11T09:36:19.330Z,954.3585
2023-04-11T09:37:21.050Z,954.3947
2023-04-11T09:38:22.825Z,954.4230
2023-04-11T09:39:24.296Z,954.4185
2023-04-11T09:40:25.905Z,954.4123
2023-04-11T09:41:27.813Z,954.3431
2023-04-11T09:42:29.311Z,954.3461
2023-04-11T09:43:30.922Z,954.3708
2023-04-11T09:44:32.701Z,954.3400
2023-04-11T09:45:44.212Z,954.3400
2023-04-11T09:46:35.809Z,954.3234
2023-04-11T09:47:37.498Z,954.3354
2023-04-11T09:48:46.502Z,954.4193
2023-04-11T09:49:40.837Z,954.4617
2023-04-11T09:50:42.448Z,954.4546
2023-04-11T09:51:44.025Z,954.4084
2023-04-11T09:52:45.689Z,954.3923
2023-04-11T09:53:47.397Z,954.4177
2023-04-11T09:54:48.980Z,954.4708
2023-04-11T09:55:50.662Z,954.4623
2023-04-11T09:56:52.348Z,954.4600
2023-04-11T09:57:54.918Z,954.4492
2023-04-11T09:58:55.872Z,954.4292
2023-04-11T09:59:58.789Z,954.4370
2023-04-11T10:00:58.814Z,954.4408
2023-04-11T10:02:00.625Z,954.3384
2023-04-11T10:03:02.613Z,954.3162
2023-04-11T10:04:04.589Z,954.3477
2023-04-11T10:05:05.609Z,954.3362
2023-04-11T10:06:07.215Z,954.3416
2023-04-11T10:07:08.842Z,954.3392
2023-04-11T10:08:10.515Z,954.3131
2023-04-11T10:09:12.182Z,954.2808
2023-04-11T10:10:13.783Z,954.3246
2023-04-11T10:11:15.438Z,954.3508
2023-04-11T10:12:17.149Z,954.3738
2023-04-11T10:13:18.840Z,954.3623
2023-04-11T10:14:20.532Z,954.3108
2023-04-11T10:15:21.981Z,954.3000
2023-04-11T10:16:23.821Z,954.3331
2023-04-11T10:17:25.411Z,954.2908
2023-04-11T10:18:27.004Z,954.2731
2023-04-11T10:19:28.686Z,954.2708
2023-04-11T10:20:30.319Z,954.2715
2023-04-11T10:21:32.026Z,954.3008
2023-04-11T10:22:33.576Z,954.3431
2023-04-11T10:23:35.272Z,954.3300
2023-04-11T10:24:36.972Z,954.3431
2023-04-11T10:25:38.559Z,954.3923
2023-04-11T10:26:40.173Z,954.3892
2023-04-11T10:27:41.841Z,954.4592
2023-04-11T10:28:43.726Z,954.4869
2023-04-11T10:29:45.282Z,954.4885
2023-04-11T10:30:46.866Z,954.4854
2023-04-11T10:31:48.634Z,954.5246
2023-04-11T10:32:50.191Z,954.5308
2023-04-11T10:33:51.989Z,954.5885
2023-04-11T10:34:53.556Z,954.6061
2023-04-11T10:35:55.171Z,954.6016
2023-04-11T10:36:56.764Z,954.6554
2023-04-11T10:37:58.990Z,954.6854
2023-04-11T10:39:00.090Z,954.7208
2023-04-11T10:40:01.816Z,954.7746
2023-04-11T10:41:03.470Z,954.7677
2023-04-11T10:42:05.032Z,954.7246
2023-04-11T10:43:07.499Z,954.6677
2023-04-11T10:44:08.362Z,954.6369
2023-04-11T10:45:10.144Z,954.6562
2023-04-11T10:46:11.590Z,954.6977
2023-04-11T10:47:13.593Z,954.6815
2023-04-11T10:48:14.911Z,954.6539
2023-04-11T10:49:16.578Z,954.6862
2023-04-11T10:50:18.655Z,954.7031
2023-04-11T10:51:19.891Z,954.7031
2023-04-11T10:52:21.570Z,954.6646
2023-04-11T10:53:23.217Z,954.6561
2023-04-11T10:54:24.883Z,954.6554
2023-04-11T10:55:27.086Z,954.6169
2023-04-11T10:56:28.184Z,954.5515
2023-04-11T10:57:29.841Z,954.5323
2023-04-11T10:58:31.475Z,954.5354
2023-04-11T10:59:33.097Z,954.5538
2023-04-11T11:00:35.198Z,954.5200
2023-04-11T11:01:42.966Z,954.5369
2023-04-11T11:02:38.425Z,954.5375
2023-04-11T11:03:39.926Z,954.5662
2023-04-11T11:04:41.417Z,954.5839
2023-04-11T11:05:42.997Z,954.5984
2023-04-11T11:06:51.103Z,954.6169
2023-04-11T11:07:46.251Z,954.6216
2023-04-11T11:08:48.397Z,954.5969
2023-04-11T11:09:49.514Z,954.5954
2023-04-11T11:10:51.274Z,954.6108
2023-04-11T11:11:52.818Z,954.6031
2023-04-11T11:12:54.549Z,954.5708
2023-04-11T11:13:56.490Z,954.5670
2023-04-11T11:14:57.814Z,954.5600
2023-04-11T11:15:59.418Z,954.5777
2023-04-11T11:17:01.222Z,954.5662
2023-04-11T11:18:02.756Z,954.5754
2023-04-11T11:19:04.872Z,954.5608
2023-04-11T11:20:06.039Z,954.5177
2023-04-11T11:21:14.170Z,954.4969
2023-04-11T11:22:09.307Z,954.4925
2023-04-11T11:23:14.125Z,954.5062
2023-04-11T11:24:17.585Z,954.5157
2023-04-11T11:25:19.189Z,954.5308
2023-04-11T11:26:20.806Z,954.5223
2023-04-11T11:27:22.413Z,954.5438
2023-04-11T11:28:24.169Z,954.5877
2023-04-11T11:29:25.798Z,954.6215
2023-04-11T11:30:27.357Z,954.5615
2023-04-11T11:31:30.033Z,954.4954
2023-04-11T11:32:30.641Z,954.4631
2023-04-11T11:33:32.396Z,954.5000
2023-04-11T11:34:34.056Z,954.4931
2023-04-11T11:35:35.688Z,954.5162
2023-04-11T11:36:37.249Z,954.4908
2023-04-11T11:37:38.896Z,954.4846
2023-04-11T11:38:41.390Z,954.5023
2023-04-11T11:39:42.238Z,954.5300
2023-04-11T11:40:43.807Z,954.5262
2023-04-11T11:41:46.560Z,954.5223
2023-04-11T11:42:47.140Z,954.5284
2023-04-11T11:43:48.736Z,954.5515
2023-04-11T11:44:50.550Z,954.5769
2023-04-11T11:45:52.138Z,954.6138
2023-04-11T11:46:53.742Z,954.6838
2023-04-11T11:47:55.886Z,954.7023
2023-04-11T11:48:57.288Z,954.6531
2023-04-11T11:49:58.668Z,954.6346
2023-04-11T11:51:01.008Z,954.6592
2023-04-11T11:52:02.099Z,954.6631
2023-04-11T11:53:03.702Z,954.6631
2023-04-11T11:54:05.351Z,954.6600
2023-04-11T11:55:10.860Z,954.5807
2023-04-11T11:56:08.713Z,954.5209
2023-04-11T11:57:10.680Z,954.5469
2023-04-11T11:58:12.153Z,954.5785
2023-04-11T11:59:13.672Z,954.6154
2023-04-11T12:00:15.290Z,954.6439
2023-04-11T12:01:17.196Z,954.6254
2023-04-11T12:02:18.691Z,954.6315
2023-04-11T12:03:20.608Z,954.6539
2023-04-11T12:04:22.189Z,954.6423